createdAt,value
2023-03-12T00:05:11.241Z,5
2023-03-12T00:10:27.624Z,4
2023-03-12T00:15:44.026Z,5
2023-03-12T00:21:00.390Z,5
2023-03-12T00:26:16.777Z,4
2023-03-12T00:31:33.230Z,4
2023-03-12T00:36:49.501Z,6
2023-03-12T00:42:05.827Z,2
2023-03-12T00:47:22.213Z,2
2023-03-12T00:52:38.666Z,3
2023-03-12T00:57:55.048Z,3
2023-03-12T01:03:11.428Z,3
2023-03-12T01:08:27.840Z,2
2023-03-12T01:13:44.166Z,2
2023-03-12T01:19:00.560Z,1
2023-03-12T01:24:16.907Z,2
2023-03-12T01:29:33.286Z,2
2023-03-12T01:34:49.702Z,2
2023-03-12T01:40:06.049Z,3
2023-03-12T01:45:22.460Z,2
2023-03-12T01:50:38.825Z,2
2023-03-12T01:55:55.189Z,3
2023-03-12T02:01:11.609Z,1
2023-03-12T02:06:27.999Z,2
2023-03-12T02:11:44.343Z,3
2023-03-12T02:17:00.745Z,2
2023-03-12T02:22:17.139Z,2
2023-03-12T02:27:33.504Z,4
2023-03-12T02:32:49.979Z,2
2023-03-12T02:38:06.286Z,2
2023-03-12T02:43:22.632Z,3
2023-03-12T02:48:39.047Z,4
2023-03-12T02:53:55.388Z,2
2023-03-12T02:59:11.765Z,3
2023-03-12T03:09:44.569Z,2
2023-03-12T03:15:00.947Z,3
2023-03-12T03:20:17.332Z,3
2023-03-12T03:25:33.912Z,2
2023-03-12T03:30:50.196Z,2
2023-03-12T03:36:06.477Z,4
2023-03-12T03:41:22.849Z,2
2023-03-12T03:46:39.374Z,2
2023-03-12T03:51:55.601Z,3
2023-03-12T03:57:12.015Z,4
2023-03-12T04:02:28.368Z,2
2023-03-12T04:07:44.728Z,2
2023-03-12T04:13:01.135Z,2
2023-03-12T04:18:17.589Z,4
2023-03-12T04:23:33.876Z,2
2023-03-12T04:28:50.266Z,3
2023-03-12T04:34:06.623Z,4
2023-03-12T04:39:23.018Z,2
2023-03-12T04:44:39.408Z,4
2023-03-12T04:49:55.740Z,2
2023-03-12T04:55:12.172Z,2
2023-03-12T05:00:28.503Z,4
2023-03-12T05:05:44.902Z,5
2023-03-12T05:11:01.313Z,3
2023-03-12T05:16:17.799Z,4
2023-03-12T05:21:34.090Z,4
2023-03-12T05:26:50.552Z,2
2023-03-12T05:32:06.823Z,3
2023-03-12T05:37:23.237Z,2
2023-03-12T05:42:39.581Z,2
2023-03-12T05:47:55.981Z,2
2023-03-12T05:53:12.386Z,2
2023-03-12T05:58:28.758Z,3
2023-03-12T06:03:45.179Z,4
2023-03-12T06:09:01.546Z,5
2023-03-12T06:14:17.906Z,4
2023-03-12T06:19:34.286Z,3
2023-03-12T06:24:50.683Z,4
2023-03-12T06:30:07.019Z,2
2023-03-12T06:35:23.499Z,3
2023-03-12T06:40:39.787Z,4
2023-03-12T06:45:56.234Z,3
2023-03-12T06:51:12.583Z,5
2023-03-12T06:56:28.940Z,4
2023-03-12T07:01:45.612Z,5
2023-03-12T07:07:01.717Z,5
2023-03-12T07:12:18.057Z,2
2023-03-12T07:17:34.465Z,4
2023-03-12T07:22:50.812Z,4
2023-03-12T07:28:07.221Z,17
2023-03-12T07:33:23.817Z,3
2023-03-12T07:38:39.965Z,2
2023-03-12T07:43:57.427Z,2
2023-03-12T07:49:13.688Z,2
2023-03-12T07:54:30.099Z,3
2023-03-12T07:59:46.735Z,2
2023-03-12T08:05:03.022Z,3
2023-03-12T08:10:19.228Z,2
2023-03-12T08:15:35.572Z,2
2023-03-12T08:20:51.888Z,7
2023-03-12T08:26:08.316Z,10
2023-03-12T08:31:24.678Z,2
2023-03-12T08:36:40.990Z,3
2023-03-12T08:41:57.361Z,3
2023-03-12T08:47:13.706Z,3
2023-03-12T08:52:30.073Z,2
2023-03-12T08:57:46.454Z,3
2023-03-12T09:03:02.823Z,3
2023-03-12T09:08:19.156Z,4
2023-03-12T09:14:46.356Z,5
2023-03-12T09:19:21.972Z,4
2023-03-12T09:24:38.337Z,3
2023-03-12T09:30:00.359Z,2
2023-03-12T09:35:11.199Z,2
2023-03-12T09:40:27.352Z,2
2023-03-12T09:45:43.716Z,8
2023-03-12T09:51:00.032Z,3
2023-03-12T09:56:16.379Z,3
2023-03-12T10:01:32.679Z,1
2023-03-12T10:06:49.027Z,2
2023-03-12T10:12:05.321Z,1
2023-03-12T10:17:21.665Z,2
2023-03-12T10:22:38.009Z,2
2023-03-12T10:27:54.322Z,2
2023-03-12T10:33:10.674Z,2
2023-03-12T10:38:27.088Z,2
2023-03-12T10:43:43.314Z,3
2023-03-12T10:48:59.679Z,2
2023-03-12T10:54:15.989Z,3
2023-03-12T10:59:32.335Z,2
2023-03-12T11:04:48.715Z,2
2023-03-12T11:10:05.043Z,3
2023-03-12T11:15:21.374Z,3
2023-03-12T11:20:37.711Z,2
2023-03-12T11:25:54.073Z,3
2023-03-12T11:31:10.528Z,2
2023-03-12T11:36:26.726Z,6
2023-03-12T11:41:43.055Z,4
2023-03-12T11:46:59.425Z,4
2023-03-12T11:52:15.760Z,3
2023-03-12T11:57:32.084Z,3
2023-03-12T12:02:48.487Z,3
2023-03-12T12:08:04.799Z,2
2023-03-12T12:13:21.060Z,2
2023-03-12T12:18:37.441Z,1
2023-03-12T12:23:53.735Z,2
2023-03-12T12:29:10.073Z,1
2023-03-12T12:34:26.434Z,2
2023-03-12T12:39:43.526Z,1
2023-03-12T12:44:59.090Z,8
2023-03-12T12:50:15.410Z,1
2023-03-12T12:55:31.723Z,1
2023-03-12T13:00:48.063Z,2
2023-03-12T13:06:04.409Z,1
2023-03-12T13:11:20.981Z,1
2023-03-12T13:16:37.100Z,2
2023-03-12T13:21:53.395Z,2
2023-03-12T13:27:09.765Z,2
2023-03-12T13:32:26.107Z,3
2023-03-12T13:37:42.369Z,2
2023-03-12T13:42:58.726Z,2
2023-03-12T13:48:15.071Z,1
2023-03-12T13:53:31.360Z,2
2023-03-12T13:58:47.683Z,1
2023-03-12T14:04:04.044Z,2
2023-03-12T14:09:20.328Z,1
2023-03-12T14:14:36.701Z,5
2023-03-12T14:19:53.036Z,1
2023-03-12T14:25:09.345Z,1
2023-03-12T14:30:25.713Z,2
2023-03-12T14:35:42.058Z,2
2023-03-12T14:40:58.341Z,4
2023-03-12T14:46:14.924Z,3
2023-03-12T14:51:31.113Z,2
2023-03-12T14:56:47.393Z,4
2023-03-12T15:02:03.809Z,2
2023-03-12T15:07:20.104Z,2
2023-03-12T15:12:36.409Z,2
2023-03-12T15:17:52.733Z,11
2023-03-12T15:23:09.065Z,2
2023-03-12T15:28:25.445Z,4
2023-03-12T15:33:41.759Z,3
2023-03-12T15:38:58.134Z,3
2023-03-12T15:44:14.476Z,4
2023-03-12T15:49:30.796Z,4
2023-03-12T15:54:47.168Z,3
2023-03-12T16:00:03.501Z,3
2023-03-12T16:05:19.818Z,3
2023-03-12T16:10:36.191Z,2
2023-03-12T16:15:52.524Z,2
2023-03-12T16:21:08.886Z,4
2023-03-12T16:26:25.244Z,3
2023-03-12T16:31:41.604Z,3
2023-03-12T16:36:58.064Z,3
2023-03-12T16:42:14.319Z,2
2023-03-12T16:47:30.877Z,3
2023-03-12T16:52:47.068Z,4
2023-03-12T16:58:03.444Z,4
2023-03-12T17:03:19.860Z,4
2023-03-12T17:08:36.332Z,5
2023-03-12T17:13:52.519Z,3
2023-03-12T17:19:08.848Z,2
2023-03-12T17:24:25.261Z,18
2023-03-12T17:29:41.611Z,16
2023-03-12T17:34:58.009Z,9
2023-03-12T17:40:14.387Z,9
2023-03-12T17:45:30.776Z,9
2023-03-12T17:50:47.160Z,11
2023-03-12T17:56:03.542Z,4
2023-03-12T18:01:19.883Z,5
2023-03-12T18:06:36.291Z,3
2023-03-12T18:11:52.607Z,4
2023-03-12T18:17:08.973Z,6
2023-03-12T18:22:25.366Z,13
2023-03-12T18:27:41.719Z,4
2023-03-12T18:32:58.182Z,4
2023-03-12T18:38:14.492Z,3
2023-03-12T18:43:30.826Z,7
2023-03-12T18:48:47.239Z,9
2023-03-12T18:54:03.609Z,10
2023-03-12T18:59:19.994Z,25
2023-03-12T19:04:36.546Z,21
2023-03-12T19:09:52.540Z,30
2023-03-12T19:15:08.978Z,20
2023-03-12T19:20:25.376Z,37
2023-03-12T19:25:41.759Z,26
2023-03-12T19:30:58.187Z,42
2023-03-12T19:36:15.107Z,44
2023-03-12T19:41:31.260Z,42
2023-03-12T19:46:47.714Z,38
2023-03-12T19:52:04.087Z,37
2023-03-12T19:57:20.534Z,27
2023-03-12T20:02:36.997Z,31
2023-03-12T20:07:53.176Z,31
2023-03-12T20:13:09.601Z,31
2023-03-12T20:18:26.024Z,33
2023-03-12T20:23:42.574Z,61
2023-03-12T20:28:59.662Z,58
2023-03-12T20:34:16.630Z,45
2023-03-12T20:39:33.058Z,44
2023-03-12T20:44:49.512Z,38
2023-03-12T20:50:05.910Z,34
2023-03-12T20:55:22.348Z,27
2023-03-12T21:00:38.791Z,33
2023-03-12T21:05:55.185Z,34
2023-03-12T21:11:11.367Z,45
2023-03-12T21:16:27.865Z,41
2023-03-12T21:21:44.233Z,33
2023-03-12T21:27:00.403Z,29
2023-03-12T21:32:16.821Z,37
2023-03-12T21:37:33.238Z,37
2023-03-12T21:42:49.642Z,33
2023-03-12T21:48:06.031Z,24
2023-03-12T21:53:23.978Z,28
2023-03-12T21:58:38.855Z,19
2023-03-12T22:03:55.266Z,20
2023-03-12T22:09:11.672Z,21
2023-03-12T22:14:28.095Z,18
2023-03-12T22:19:44.494Z,19
2023-03-12T22:25:00.897Z,26
2023-03-12T22:30:17.311Z,28
2023-03-12T22:35:33.874Z,28
2023-03-12T22:40:50.796Z,28
2023-03-12T22:46:07.208Z,19
2023-03-12T22:51:23.594Z,27
2023-03-12T22:56:40.039Z,26
2023-03-12T23:01:56.479Z,34
2023-03-12T23:07:15.833Z,26
2023-03-12T23:12:29.274Z,19
2023-03-12T23:17:45.661Z,18
2023-03-12T23:23:02.044Z,20
2023-03-12T23:28:18.464Z,21
2023-03-12T23:33:34.862Z,22
2023-03-12T23:38:51.292Z,30
2023-03-12T23:44:07.726Z,44
2023-03-12T23:49:24.138Z,31
2023-03-12T23:54:40.564Z,25
2023-03-12T23:59:56.965Z,32
